sensor_id;sensor_type;location;lat;lon;timestamp;temperature;humidity
8043;DHT22;4064;48.132;11.366;2024-02-26T00:02:18;2.00;99.90
8043;DHT22;4064;48.132;11.366;2024-02-26T00:04:44;2.10;99.90
8043;DHT22;4064;48.132;11.366;2024-02-26T00:07:10;2.20;99.90
8043;DHT22;4064;48.132;11.366;2024-02-26T00:09:35;2.20;99.90
8043;DHT22;4064;48.132;11.366;2024-02-26T00:12:03;2.10;99.90
8043;DHT22;4064;48.132;11.366;2024-02-26T00:14:30;2.10;99.90
8043;DHT22;4064;48.132;11.366;2024-02-26T00:16:55;2.00;99.90
8043;DHT22;4064;48.132;11.366;2024-02-26T00:19:21;1.80;99.90
8043;DHT22;4064;48.132;11.366;2024-02-26T00:21:47;1.90;99.90
8043;DHT22;4064;48.132;11.366;2024-02-26T00:24:12;2.10;99.90
8043;DHT22;4064;48.132;11.366;2024-02-26T00:26:38;2.00;99.90
8043;DHT22;4064;48.132;11.366;2024-02-26T00:29:04;1.90;99.90
8043;DHT22;4064;48.132;11.366;2024-02-26T00:31:30;1.90;99.90
8043;DHT22;4064;48.132;11.366;2024-02-26T00:33:55;1.70;99.90
8043;DHT22;4064;48.132;11.366;2024-02-26T00:36:21;1.70;99.90
8043;DHT22;4064;48.132;11.366;2024-02-26T00:38:47;1.90;99.90
8043;DHT22;4064;48.132;11.366;2024-02-26T00:41:16;1.80;99.90
8043;DHT22;4064;48.132;11.366;2024-02-26T00:43:42;1.90;99.90
8043;DHT22;4064;48.132;11.366;2024-02-26T00:46:08;1.80;99.90
8043;DHT22;4064;48.132;11.366;2024-02-26T00:48:33;1.90;99.90
8043;DHT22;4064;48.132;11.366;2024-02-26T00:50:59;2.00;99.90
8043;DHT22;4064;48.132;11.366;2024-02-26T00:53:24;2.00;99.90
8043;DHT22;4064;48.132;11.366;2024-02-26T00:55:50;1.90;99.90
8043;DHT22;4064;48.132;11.366;2024-02-26T00:58:16;1.80;99.90
8043;DHT22;4064;48.132;11.366;2024-02-26T01:00:42;1.40;99.90
8043;DHT22;4064;48.132;11.366;2024-02-26T01:03:07;1.60;99.90
8043;DHT22;4064;48.132;11.366;2024-02-26T01:05:33;1.70;99.90
8043;DHT22;4064;48.132;11.366;2024-02-26T01:07:59;1.70;99.90
8043;DHT22;4064;48.132;11.366;2024-02-26T01:10:24;1.50;99.90
8043;DHT22;4064;48.132;11.366;2024-02-26T01:12:50;1.50;99.90
8043;DHT22;4064;48.132;11.366;2024-02-26T01:15:16;1.60;99.90
8043;DHT22;4064;48.132;11.366;2024-02-26T01:17:41;1.50;99.90
8043;DHT22;4064;48.132;11.366;2024-02-26T01:20:07;1.40;99.90
8043;DHT22;4064;48.132;11.366;2024-02-26T01:22:34;1.50;99.90
8043;DHT22;4064;48.132;11.366;2024-02-26T01:25:00;1.40;99.90
8043;DHT22;4064;48.132;11.366;2024-02-26T01:27:25;1.60;99.90
8043;DHT22;4064;48.132;11.366;2024-02-26T01:29:52;1.70;99.90
8043;DHT22;4064;48.132;11.366;2024-02-26T01:32:18;1.60;99.90
8043;DHT22;4064;48.132;11.366;2024-02-26T01:34:45;1.50;99.90
8043;DHT22;4064;48.132;11.366;2024-02-26T01:37:10;1.50;99.90
8043;DHT22;4064;48.132;11.366;2024-02-26T01:39:36;1.60;99.90
8043;DHT22;4064;48.132;11.366;2024-02-26T01:42:02;1.70;99.90
8043;DHT22;4064;48.132;11.366;2024-02-26T01:44:28;1.70;99.90
8043;DHT22;4064;48.132;11.366;2024-02-26T01:46:54;1.50;99.90
8043;DHT22;4064;48.132;11.366;2024-02-26T01:49:19;1.50;99.90
8043;DHT22;4064;48.132;11.366;2024-02-26T01:51:47;1.70;99.90
8043;DHT22;4064;48.132;11.366;2024-02-26T01:54:13;1.70;99.90
8043;DHT22;4064;48.132;11.366;2024-02-26T01:56:39;1.60;99.90
8043;DHT22;4064;48.132;11.366;2024-02-26T01:59:06;1.60;99.90
8043;DHT22;4064;48.132;11.366;2024-02-26T02:01:33;1.40;99.90
8043;DHT22;4064;48.132;11.366;2024-02-26T02:04:00;1.20;99.90
8043;DHT22;4064;48.132;11.366;2024-02-26T02:06:26;1.20;99.90
8043;DHT22;4064;48.132;11.366;2024-02-26T02:08:54;1.10;99.90
8043;DHT22;4064;48.132;11.366;2024-02-26T02:11:20;1.10;99.90
8043;DHT22;4064;48.132;11.366;2024-02-26T02:13:45;1.20;99.90
8043;DHT22;4064;48.132;11.366;2024-02-26T02:16:11;0.80;99.90
8043;DHT22;4064;48.132;11.366;2024-02-26T02:18:37;1.00;99.90
8043;DHT22;4064;48.132;11.366;2024-02-26T02:21:03;1.00;99.90
8043;DHT22;4064;48.132;11.366;2024-02-26T02:23:29;1.00;99.90
8043;DHT22;4064;48.132;11.366;2024-02-26T02:25:56;1.10;99.90
8043;DHT22;4064;48.132;11.366;2024-02-26T02:28:23;1.00;99.90
8043;DHT22;4064;48.132;11.366;2024-02-26T02:30:50;0.80;99.90
8043;DHT22;4064;48.132;11.366;2024-02-26T02:33:16;0.70;99.90
8043;DHT22;4064;48.132;11.366;2024-02-26T02:35:42;0.80;99.90
8043;DHT22;4064;48.132;11.366;2024-02-26T02:38:08;1.00;99.90
8043;DHT22;4064;48.132;11.366;2024-02-26T02:40:34;1.10;99.90
8043;DHT22;4064;48.132;11.366;2024-02-26T02:42:59;1.20;99.90
8043;DHT22;4064;48.132;11.366;2024-02-26T02:45:27;0.90;99.90
8043;DHT22;4064;48.132;11.366;2024-02-26T02:47:53;0.90;99.90
8043;DHT22;4064;48.132;11.366;2024-02-26T02:50:18;0.90;99.90
8043;DHT22;4064;48.132;11.366;2024-02-26T02:52:44;0.80;99.90
8043;DHT22;4064;48.132;11.366;2024-02-26T02:55:09;1.00;99.90
8043;DHT22;4064;48.132;11.366;2024-02-26T02:57:35;1.10;99.90
8043;DHT22;4064;48.132;11.366;2024-02-26T03:00:09;1.00;99.90
8043;DHT22;4064;48.132;11.366;2024-02-26T03:02:35;1.00;99.90
8043;DHT22;4064;48.132;11.366;2024-02-26T03:05:04;0.80;99.90
8043;DHT22;4064;48.132;11.366;2024-02-26T03:07:30;0.80;99.90
8043;DHT22;4064;48.132;11.366;2024-02-26T03:09:56;0.80;99.90
8043;DHT22;4064;48.132;11.366;2024-02-26T03:12:21;0.90;99.90
8043;DHT22;4064;48.132;11.366;2024-02-26T03:14:47;0.80;99.90
8043;DHT22;4064;48.132;11.366;2024-02-26T03:17:13;0.90;99.90
8043;DHT22;4064;48.132;11.366;2024-02-26T03:19:38;1.00;99.90
8043;DHT22;4064;48.132;11.366;2024-02-26T03:22:04;1.00;99.90
8043;DHT22;4064;48.132;11.366;2024-02-26T03:24:30;1.20;99.90
8043;DHT22;4064;48.132;11.366;2024-02-26T03:26:56;1.10;99.90
8043;DHT22;4064;48.132;11.366;2024-02-26T03:29:21;1.20;99.90
8043;DHT22;4064;48.132;11.366;2024-02-26T03:31:47;1.20;99.90
8043;DHT22;4064;48.132;11.366;2024-02-26T03:34:12;1.10;99.90
8043;DHT22;4064;48.132;11.366;2024-02-26T03:36:40;1.10;99.90
8043;DHT22;4064;48.132;11.366;2024-02-26T03:39:06;1.40;99.90
8043;DHT22;4064;48.132;11.366;2024-02-26T03:41:33;1.40;99.90
8043;DHT22;4064;48.132;11.366;2024-02-26T03:43:59;1.30;99.90
8043;DHT22;4064;48.132;11.366;2024-02-26T03:46:24;1.40;99.90
8043;DHT22;4064;48.132;11.366;2024-02-26T03:48:50;1.30;99.90
8043;DHT22;4064;48.132;11.366;2024-02-26T03:51:16;1.30;99.90
8043;DHT22;4064;48.132;11.366;2024-02-26T03:53:41;1.30;99.90
8043;DHT22;4064;48.132;11.366;2024-02-26T03:56:07;1.40;99.90
8043;DHT22;4064;48.132;11.366;2024-02-26T03:58:33;1.40;99.90
8043;DHT22;4064;48.132;11.366;2024-02-26T04:01:01;1.60;99.90
8043;DHT22;4064;48.132;11.366;2024-02-26T04:03:27;1.50;99.90
8043;DHT22;4064;48.132;11.366;2024-02-26T04:05:53;1.50;99.90
8043;DHT22;4064;48.132;11.366;2024-02-26T04:08:18;1.20;99.90
8043;DHT22;4064;48.132;11.366;2024-02-26T04:10:44;1.30;99.90
8043;DHT22;4064;48.132;11.366;2024-02-26T04:13:09;1.30;99.90
8043;DHT22;4064;48.132;11.366;2024-02-26T04:15:35;1.30;99.90
8043;DHT22;4064;48.132;11.366;2024-02-26T04:18:01;1.20;99.90
8043;DHT22;4064;48.132;11.366;2024-02-26T04:20:27;1.20;99.90
8043;DHT22;4064;48.132;11.366;2024-02-26T04:22:53;1.20;99.90
8043;DHT22;4064;48.132;11.366;2024-02-26T04:25:19;1.20;99.90
8043;DHT22;4064;48.132;11.366;2024-02-26T04:27:44;1.20;99.90
8043;DHT22;4064;48.132;11.366;2024-02-26T04:30:10;1.20;99.90
8043;DHT22;4064;48.132;11.366;2024-02-26T04:32:36;1.30;99.90
8043;DHT22;4064;48.132;11.366;2024-02-26T04:35:05;1.20;99.90
8043;DHT22;4064;48.132;11.366;2024-02-26T04:37:31;1.20;99.90
8043;DHT22;4064;48.132;11.366;2024-02-26T04:40:00;1.30;99.90
8043;DHT22;4064;48.132;11.366;2024-02-26T04:42:27;1.10;99.90
8043;DHT22;4064;48.132;11.366;2024-02-26T04:44:53;1.00;99.90
8043;DHT22;4064;48.132;11.366;2024-02-26T04:47:19;1.20;99.90
8043;DHT22;4064;48.132;11.366;2024-02-26T04:49:45;1.20;99.90
8043;DHT22;4064;48.132;11.366;2024-02-26T04:52:11;1.20;99.90
8043;DHT22;4064;48.132;11.366;2024-02-26T04:54:37;1.10;99.90
8043;DHT22;4064;48.132;11.366;2024-02-26T04:57:03;1.10;99.90
8043;DHT22;4064;48.132;11.366;2024-02-26T04:59:28;1.20;99.90
8043;DHT22;4064;48.132;11.366;2024-02-26T05:01:54;1.20;99.90
8043;DHT22;4064;48.132;11.366;2024-02-26T05:04:19;1.10;99.90
8043;DHT22;4064;48.132;11.366;2024-02-26T05:06:45;1.20;99.90
8043;DHT22;4064;48.132;11.366;2024-02-26T05:09:10;1.20;99.90
8043;DHT22;4064;48.132;11.366;2024-02-26T05:11:36;1.20;99.90
8043;DHT22;4064;48.132;11.366;2024-02-26T05:14:02;1.20;99.90
8043;DHT22;4064;48.132;11.366;2024-02-26T05:16:28;1.20;99.90
8043;DHT22;4064;48.132;11.366;2024-02-26T05:18:55;1.30;99.90
8043;DHT22;4064;48.132;11.366;2024-02-26T05:21:21;1.00;99.90
8043;DHT22;4064;48.132;11.366;2024-02-26T05:23:46;1.10;99.90
8043;DHT22;4064;48.132;11.366;2024-02-26T05:26:18;1.20;99.90
8043;DHT22;4064;48.132;11.366;2024-02-26T05:28:44;1.30;99.90
8043;DHT22;4064;48.132;11.366;2024-02-26T05:31:13;1.30;99.90
8043;DHT22;4064;48.132;11.366;2024-02-26T05:33:38;1.20;99.90
8043;DHT22;4064;48.132;11.366;2024-02-26T05:36:04;1.20;99.90
8043;DHT22;4064;48.132;11.366;2024-02-26T05:38:30;1.20;99.90
8043;DHT22;4064;48.132;11.366;2024-02-26T05:41:00;1.30;99.90
8043;DHT22;4064;48.132;11.366;2024-02-26T05:43:28;1.30;99.90
8043;DHT22;4064;48.132;11.366;2024-02-26T05:45:54;1.40;99.90
8043;DHT22;4064;48.132;11.366;2024-02-26T05:48:21;1.40;99.90
8043;DHT22;4064;48.132;11.366;2024-02-26T05:50:47;1.50;99.90
8043;DHT22;4064;48.132;11.366;2024-02-26T05:53:12;1.40;99.90
8043;DHT22;4064;48.132;11.366;2024-02-26T05:55:38;1.40;99.90
8043;DHT22;4064;48.132;11.366;2024-02-26T05:58:04;1.40;99.90
8043;DHT22;4064;48.132;11.366;2024-02-26T06:00:30;1.40;99.90
8043;DHT22;4064;48.132;11.366;2024-02-26T06:02:55;1.50;99.90
8043;DHT22;4064;48.132;11.366;2024-02-26T06:05:21;1.70;99.90
8043;DHT22;4064;48.132;11.366;2024-02-26T06:07:47;1.80;99.90
8043;DHT22;4064;48.132;11.366;2024-02-26T06:10:12;1.70;99.90
8043;DHT22;4064;48.132;11.366;2024-02-26T06:12:39;1.80;99.90
8043;DHT22;4064;48.132;11.366;2024-02-26T06:15:06;1.80;99.90
8043;DHT22;4064;48.132;11.366;2024-02-26T06:17:31;1.80;99.90
8043;DHT22;4064;48.132;11.366;2024-02-26T06:19:57;1.90;99.90
8043;DHT22;4064;48.132;11.366;2024-02-26T06:22:24;1.90;99.90
8043;DHT22;4064;48.132;11.366;2024-02-26T06:24:50;2.00;99.90
8043;DHT22;4064;48.132;11.366;2024-02-26T06:27:16;1.90;99.90
8043;DHT22;4064;48.132;11.366;2024-02-26T06:29:41;2.00;99.90
8043;DHT22;4064;48.132;11.366;2024-02-26T06:32:07;2.00;99.90
8043;DHT22;4064;48.132;11.366;2024-02-26T06:34:33;2.10;99.90
8043;DHT22;4064;48.132;11.366;2024-02-26T06:36:58;2.10;99.90
8043;DHT22;4064;48.132;11.366;2024-02-26T06:39:24;2.00;99.90
8043;DHT22;4064;48.132;11.366;2024-02-26T06:41:49;2.00;99.90
8043;DHT22;4064;48.132;11.366;2024-02-26T06:44:15;2.10;99.90
8043;DHT22;4064;48.132;11.366;2024-02-26T06:46:40;2.10;99.90
8043;DHT22;4064;48.132;11.366;2024-02-26T06:49:06;2.00;99.90
8043;DHT22;4064;48.132;11.366;2024-02-26T06:51:32;2.10;99.90
8043;DHT22;4064;48.132;11.366;2024-02-26T06:53:58;2.20;99.90
8043;DHT22;4064;48.132;11.366;2024-02-26T06:56:23;2.20;99.90
8043;DHT22;4064;48.132;11.366;2024-02-26T06:58:49;2.10;99.90
8043;DHT22;4064;48.132;11.366;2024-02-26T07:01:14;2.20;99.90
8043;DHT22;4064;48.132;11.366;2024-02-26T07:03:40;2.20;99.90
8043;DHT22;4064;48.132;11.366;2024-02-26T07:06:06;2.30;99.90
8043;DHT22;4064;48.132;11.366;2024-02-26T07:08:32;2.40;99.90
8043;DHT22;4064;48.132;11.366;2024-02-26T07:10:58;2.30;99.90
8043;DHT22;4064;48.132;11.366;2024-02-26T07:13:23;2.50;99.90
8043;DHT22;4064;48.132;11.366;2024-02-26T07:15:49;2.50;99.90
8043;DHT22;4064;48.132;11.366;2024-02-26T07:18:14;2.70;99.90
8043;DHT22;4064;48.132;11.366;2024-02-26T07:20:40;2.90;99.90
8043;DHT22;4064;48.132;11.366;2024-02-26T07:23:06;3.10;99.90
8043;DHT22;4064;48.132;11.366;2024-02-26T07:25:32;3.20;99.90
8043;DHT22;4064;48.132;11.366;2024-02-26T07:27:57;3.30;99.90
8043;DHT22;4064;48.132;11.366;2024-02-26T07:30:23;3.40;99.90
8043;DHT22;4064;48.132;11.366;2024-02-26T07:32:50;3.50;99.90
8043;DHT22;4064;48.132;11.366;2024-02-26T07:35:15;3.50;99.90
8043;DHT22;4064;48.132;11.366;2024-02-26T07:37:42;3.50;99.90
8043;DHT22;4064;48.132;11.366;2024-02-26T07:40:08;3.50;99.90
8043;DHT22;4064;48.132;11.366;2024-02-26T07:42:34;3.40;99.90
8043;DHT22;4064;48.132;11.366;2024-02-26T07:45:00;3.30;99.90
8043;DHT22;4064;48.132;11.366;2024-02-26T07:47:25;3.40;99.90
8043;DHT22;4064;48.132;11.366;2024-02-26T07:49:51;3.30;99.90
8043;DHT22;4064;48.132;11.366;2024-02-26T07:52:17;3.30;99.90
8043;DHT22;4064;48.132;11.366;2024-02-26T07:54:42;3.50;99.90
8043;DHT22;4064;48.132;11.366;2024-02-26T07:57:08;3.60;99.90
8043;DHT22;4064;48.132;11.366;2024-02-26T07:59:33;3.60;99.90
8043;DHT22;4064;48.132;11.366;2024-02-26T08:01:59;3.60;99.90
8043;DHT22;4064;48.132;11.366;2024-02-26T08:04:26;3.70;99.90
8043;DHT22;4064;48.132;11.366;2024-02-26T08:06:52;3.70;99.90
8043;DHT22;4064;48.132;11.366;2024-02-26T08:09:17;4.00;99.90
8043;DHT22;4064;48.132;11.366;2024-02-26T08:11:43;4.20;99.90
8043;DHT22;4064;48.132;11.366;2024-02-26T08:14:08;4.40;99.90
8043;DHT22;4064;48.132;11.366;2024-02-26T08:16:34;4.50;99.90
8043;DHT22;4064;48.132;11.366;2024-02-26T08:19:00;4.80;99.90
8043;DHT22;4064;48.132;11.366;2024-02-26T08:21:25;4.80;99.90
8043;DHT22;4064;48.132;11.366;2024-02-26T08:23:51;4.80;99.90
8043;DHT22;4064;48.132;11.366;2024-02-26T08:26:16;4.90;99.90
8043;DHT22;4064;48.132;11.366;2024-02-26T08:28:42;5.10;99.90
8043;DHT22;4064;48.132;11.366;2024-02-26T08:31:07;5.10;99.90
8043;DHT22;4064;48.132;11.366;2024-02-26T08:33:33;5.00;99.90
8043;DHT22;4064;48.132;11.366;2024-02-26T08:36:07;4.90;99.90
8043;DHT22;4064;48.132;11.366;2024-02-26T08:38:32;5.00;99.90
8043;DHT22;4064;48.132;11.366;2024-02-26T08:41:01;5.00;99.90
8043;DHT22;4064;48.132;11.366;2024-02-26T08:43:27;5.10;99.90
8043;DHT22;4064;48.132;11.366;2024-02-26T08:45:52;5.10;99.90
8043;DHT22;4064;48.132;11.366;2024-02-26T08:48:18;5.10;99.90
8043;DHT22;4064;48.132;11.366;2024-02-26T08:50:43;5.10;99.90
8043;DHT22;4064;48.132;11.366;2024-02-26T08:53:09;5.20;99.90
8043;DHT22;4064;48.132;11.366;2024-02-26T08:55:35;5.30;99.90
8043;DHT22;4064;48.132;11.366;2024-02-26T08:58:00;5.30;99.90
8043;DHT22;4064;48.132;11.366;2024-02-26T09:00:26;5.20;99.90
8043;DHT22;4064;48.132;11.366;2024-02-26T09:02:51;5.30;99.90
8043;DHT22;4064;48.132;11.366;2024-02-26T09:05:17;5.30;99.90
8043;DHT22;4064;48.132;11.366;2024-02-26T09:07:43;5.40;99.90
8043;DHT22;4064;48.132;11.366;2024-02-26T09:10:09;5.50;99.90
8043;DHT22;4064;48.132;11.366;2024-02-26T09:12:36;5.50;99.90
8043;DHT22;4064;48.132;11.366;2024-02-26T09:15:01;5.70;99.90
8043;DHT22;4064;48.132;11.366;2024-02-26T09:17:27;5.90;99.90
8043;DHT22;4064;48.132;11.366;2024-02-26T09:19:53;5.90;99.90
8043;DHT22;4064;48.132;11.366;2024-02-26T09:22:18;6.00;99.90
8043;DHT22;4064;48.132;11.366;2024-02-26T09:24:44;6.10;99.90
8043;DHT22;4064;48.132;11.366;2024-02-26T09:27:09;6.20;99.90
8043;DHT22;4064;48.132;11.366;2024-02-26T09:29:36;6.60;99.90
8043;DHT22;4064;48.132;11.366;2024-02-26T09:35:23;7.40;99.90
8043;DHT22;4064;48.132;11.366;2024-02-26T09:37:49;7.70;99.90
8043;DHT22;4064;48.132;11.366;2024-02-26T09:40:15;7.80;99.90
8043;DHT22;4064;48.132;11.366;2024-02-26T09:42:45;7.80;99.90
8043;DHT22;4064;48.132;11.366;2024-02-26T09:45:17;7.90;99.90
8043;DHT22;4064;48.132;11.366;2024-02-26T09:47:43;7.90;99.90
8043;DHT22;4064;48.132;11.366;2024-02-26T09:50:10;8.10;99.90
8043;DHT22;4064;48.132;11.366;2024-02-26T09:52:40;8.30;99.90
8043;DHT22;4064;48.132;11.366;2024-02-26T09:55:07;8.70;99.90
8043;DHT22;4064;48.132;11.366;2024-02-26T09:57:34;8.90;99.90
8043;DHT22;4064;48.132;11.366;2024-02-26T10:00:02;9.00;99.90
8043;DHT22;4064;48.132;11.366;2024-02-26T10:02:31;8.90;99.90
8043;DHT22;4064;48.132;11.366;2024-02-26T10:04:59;9.10;99.90
8043;DHT22;4064;48.132;11.366;2024-02-26T10:07:30;9.20;99.90
8043;DHT22;4064;48.132;11.366;2024-02-26T10:09:57;9.70;99.90
8043;DHT22;4064;48.132;11.366;2024-02-26T10:12:23;10.10;99.90
8043;DHT22;4064;48.132;11.366;2024-02-26T10:14:51;10.50;99.90
8043;DHT22;4064;48.132;11.366;2024-02-26T10:17:17;10.90;99.90
8043;DHT22;4064;48.132;11.366;2024-02-26T10:19:44;11.30;99.90
8043;DHT22;4064;48.132;11.366;2024-02-26T10:22:09;11.60;99.90
8043;DHT22;4064;48.132;11.366;2024-02-26T10:24:35;11.90;99.90
8043;DHT22;4064;48.132;11.366;2024-02-26T10:27:02;11.70;99.90
8043;DHT22;4064;48.132;11.366;2024-02-26T10:29:27;11.90;99.60
8043;DHT22;4064;48.132;11.366;2024-02-26T10:31:53;11.90;98.80
8043;DHT22;4064;48.132;11.366;2024-02-26T10:34:19;11.90;97.50
8043;DHT22;4064;48.132;11.366;2024-02-26T10:36:45;11.90;95.20
8043;DHT22;4064;48.132;11.366;2024-02-26T10:39:14;11.90;93.80
8043;DHT22;4064;48.132;11.366;2024-02-26T10:41:41;11.90;93.50
8043;DHT22;4064;48.132;11.366;2024-02-26T10:44:11;11.90;93.40
8043;DHT22;4064;48.132;11.366;2024-02-26T10:46:38;11.90;93.00
8043;DHT22;4064;48.132;11.366;2024-02-26T10:49:04;12.00;91.80
8043;DHT22;4064;48.132;11.366;2024-02-26T10:51:31;12.00;92.90
8043;DHT22;4064;48.132;11.366;2024-02-26T10:54:02;12.10;92.60
8043;DHT22;4064;48.132;11.366;2024-02-26T10:56:34;12.10;90.80
8043;DHT22;4064;48.132;11.366;2024-02-26T10:59:00;12.30;89.90
8043;DHT22;4064;48.132;11.366;2024-02-26T11:01:27;12.50;90.80
8043;DHT22;4064;48.132;11.366;2024-02-26T11:03:57;12.70;87.30
8043;DHT22;4064;48.132;11.366;2024-02-26T11:06:26;13.00;86.70
8043;DHT22;4064;48.132;11.366;2024-02-26T11:08:53;13.10;85.60
8043;DHT22;4064;48.132;11.366;2024-02-26T11:11:20;12.80;84.60
8043;DHT22;4064;48.132;11.366;2024-02-26T11:13:47;12.90;85.10
8043;DHT22;4064;48.132;11.366;2024-02-26T11:16:21;12.90;85.00
8043;DHT22;4064;48.132;11.366;2024-02-26T11:18:48;12.90;84.10
8043;DHT22;4064;48.132;11.366;2024-02-26T11:21:18;12.90;86.30
8043;DHT22;4064;48.132;11.366;2024-02-26T11:23:45;12.60;86.00
8043;DHT22;4064;48.132;11.366;2024-02-26T11:26:11;12.50;85.40
8043;DHT22;4064;48.132;11.366;2024-02-26T11:28:39;12.90;85.40
8043;DHT22;4064;48.132;11.366;2024-02-26T11:31:05;13.30;80.60
8043;DHT22;4064;48.132;11.366;2024-02-26T11:33:33;13.20;80.20
8043;DHT22;4064;48.132;11.366;2024-02-26T11:36:11;13.70;79.20
8043;DHT22;4064;48.132;11.366;2024-02-26T11:38:37;14.30;78.00
8043;DHT22;4064;48.132;11.366;2024-02-26T11:41:05;14.60;76.40
8043;DHT22;4064;48.132;11.366;2024-02-26T11:48:56;14.60;73.80
8043;DHT22;4064;48.132;11.366;2024-02-26T11:51:34;15.10;75.40
8043;DHT22;4064;48.132;11.366;2024-02-26T11:54:00;15.10;72.60
8043;DHT22;4064;48.132;11.366;2024-02-26T11:56:26;15.50;70.90
8043;DHT22;4064;48.132;11.366;2024-02-26T11:59:09;15.50;70.30
8043;DHT22;4064;48.132;11.366;2024-02-26T12:04:11;15.20;66.00
8043;DHT22;4064;48.132;11.366;2024-02-26T12:06:49;15.50;69.40
8043;DHT22;4064;48.132;11.366;2024-02-26T12:09:31;15.30;69.20
8043;DHT22;4064;48.132;11.366;2024-02-26T12:11:57;14.80;68.20
8043;DHT22;4064;48.132;11.366;2024-02-26T12:14:25;14.70;69.80
8043;DHT22;4064;48.132;11.366;2024-02-26T12:16:52;14.60;69.20
8043;DHT22;4064;48.132;11.366;2024-02-26T12:19:18;14.80;69.20
8043;DHT22;4064;48.132;11.366;2024-02-26T12:21:44;15.30;70.40
8043;DHT22;4064;48.132;11.366;2024-02-26T12:24:14;15.40;69.00
8043;DHT22;4064;48.132;11.366;2024-02-26T12:26:41;15.40;70.30
8043;DHT22;4064;48.132;11.366;2024-02-26T12:29:07;15.80;68.20
8043;DHT22;4064;48.132;11.366;2024-02-26T12:31:33;16.10;68.60
8043;DHT22;4064;48.132;11.366;2024-02-26T12:34:02;16.30;65.10
8043;DHT22;4064;48.132;11.366;2024-02-26T12:36:28;15.80;65.60
8043;DHT22;4064;48.132;11.366;2024-02-26T12:38:55;15.50;65.80
8043;DHT22;4064;48.132;11.366;2024-02-26T12:41:22;15.40;65.20
8043;DHT22;4064;48.132;11.366;2024-02-26T12:43:48;15.10;64.30
8043;DHT22;4064;48.132;11.366;2024-02-26T12:46:13;15.40;64.00
8043;DHT22;4064;48.132;11.366;2024-02-26T12:48:43;15.60;63.70
8043;DHT22;4064;48.132;11.366;2024-02-26T12:51:11;15.40;64.50
8043;DHT22;4064;48.132;11.366;2024-02-26T12:53:38;15.80;65.40
8043;DHT22;4064;48.132;11.366;2024-02-26T12:56:06;15.80;62.30
8043;DHT22;4064;48.132;11.366;2024-02-26T12:58:33;15.30;60.40
8043;DHT22;4064;48.132;11.366;2024-02-26T13:00:59;15.80;62.90
8043;DHT22;4064;48.132;11.366;2024-02-26T13:03:25;16.20;61.10
8043;DHT22;4064;48.132;11.366;2024-02-26T13:05:51;16.20;59.60
8043;DHT22;4064;48.132;11.366;2024-02-26T13:08:20;15.90;58.90
8043;DHT22;4064;48.132;11.366;2024-02-26T13:10:46;15.80;58.80
8043;DHT22;4064;48.132;11.366;2024-02-26T13:13:15;15.60;60.70
8043;DHT22;4064;48.132;11.366;2024-02-26T13:15:43;15.50;61.10
8043;DHT22;4064;48.132;11.366;2024-02-26T13:18:10;15.10;63.90
8043;DHT22;4064;48.132;11.366;2024-02-26T13:20:36;14.90;59.40
8043;DHT22;4064;48.132;11.366;2024-02-26T13:23:06;14.60;60.50
8043;DHT22;4064;48.132;11.366;2024-02-26T13:25:33;14.60;59.90
8043;DHT22;4064;48.132;11.366;2024-02-26T13:28:16;14.50;59.50
8043;DHT22;4064;48.132;11.366;2024-02-26T13:30:53;14.30;59.90
8043;DHT22;4064;48.132;11.366;2024-02-26T13:33:22;14.00;60.50
8043;DHT22;4064;48.132;11.366;2024-02-26T13:35:48;14.10;62.40
8043;DHT22;4064;48.132;11.366;2024-02-26T13:38:13;14.10;61.50
8043;DHT22;4064;48.132;11.366;2024-02-26T13:40:39;13.90;61.00
8043;DHT22;4064;48.132;11.366;2024-02-26T13:43:05;13.60;62.10
8043;DHT22;4064;48.132;11.366;2024-02-26T13:45:34;13.60;63.30
8043;DHT22;4064;48.132;11.366;2024-02-26T13:48:02;13.70;63.90
8043;DHT22;4064;48.132;11.366;2024-02-26T13:50:28;13.40;63.20
8043;DHT22;4064;48.132;11.366;2024-02-26T13:52:54;13.30;64.50
8043;DHT22;4064;48.132;11.366;2024-02-26T13:55:22;13.40;65.60
8043;DHT22;4064;48.132;11.366;2024-02-26T13:57:49;13.20;65.10
8043;DHT22;4064;48.132;11.366;2024-02-26T14:00:17;13.20;65.60
8043;DHT22;4064;48.132;11.366;2024-02-26T14:02:43;13.20;66.50
8043;DHT22;4064;48.132;11.366;2024-02-26T14:05:09;13.20;66.40
8043;DHT22;4064;48.132;11.366;2024-02-26T14:07:35;13.20;66.20
8043;DHT22;4064;48.132;11.366;2024-02-26T14:10:00;13.10;66.50
8043;DHT22;4064;48.132;11.366;2024-02-26T14:12:26;13.10;66.40
8043;DHT22;4064;48.132;11.366;2024-02-26T14:14:51;12.80;68.30
8043;DHT22;4064;48.132;11.366;2024-02-26T14:17:21;12.80;70.60
8043;DHT22;4064;48.132;11.366;2024-02-26T14:19:47;12.70;71.90
8043;DHT22;4064;48.132;11.366;2024-02-26T14:22:14;12.60;74.30
8043;DHT22;4064;48.132;11.366;2024-02-26T14:24:40;12.40;74.70
8043;DHT22;4064;48.132;11.366;2024-02-26T14:27:12;12.30;75.90
8043;DHT22;4064;48.132;11.366;2024-02-26T14:29:41;12.30;78.30
8043;DHT22;4064;48.132;11.366;2024-02-26T14:32:08;12.10;77.90
8043;DHT22;4064;48.132;11.366;2024-02-26T14:34:34;12.10;80.00
8043;DHT22;4064;48.132;11.366;2024-02-26T14:37:00;12.00;79.40
8043;DHT22;4064;48.132;11.366;2024-02-26T14:39:25;12.00;78.10
8043;DHT22;4064;48.132;11.366;2024-02-26T14:41:51;12.00;78.40
8043;DHT22;4064;48.132;11.366;2024-02-26T14:44:17;11.80;78.60
8043;DHT22;4064;48.132;11.366;2024-02-26T14:46:42;11.70;78.30
8043;DHT22;4064;48.132;11.366;2024-02-26T14:49:08;11.70;79.40
8043;DHT22;4064;48.132;11.366;2024-02-26T14:51:34;11.60;79.70
8043;DHT22;4064;48.132;11.366;2024-02-26T14:54:00;11.60;79.20
8043;DHT22;4064;48.132;11.366;2024-02-26T14:56:27;11.50;80.30
8043;DHT22;4064;48.132;11.366;2024-02-26T14:58:53;11.40;79.70
8043;DHT22;4064;48.132;11.366;2024-02-26T15:01:18;11.30;78.80
8043;DHT22;4064;48.132;11.366;2024-02-26T15:03:44;11.20;80.60
8043;DHT22;4064;48.132;11.366;2024-02-26T15:06:09;11.20;80.80
8043;DHT22;4064;48.132;11.366;2024-02-26T15:08:35;10.90;80.50
8043;DHT22;4064;48.132;11.366;2024-02-26T15:11:01;10.80;80.10
8043;DHT22;4064;48.132;11.366;2024-02-26T15:13:27;10.80;80.40
8043;DHT22;4064;48.132;11.366;2024-02-26T15:15:52;10.70;78.80
8043;DHT22;4064;48.132;11.366;2024-02-26T15:18:18;10.70;80.20
8043;DHT22;4064;48.132;11.366;2024-02-26T15:20:44;10.60;80.10
8043;DHT22;4064;48.132;11.366;2024-02-26T15:23:11;10.50;80.40
8043;DHT22;4064;48.132;11.366;2024-02-26T15:25:37;10.50;80.90
8043;DHT22;4064;48.132;11.366;2024-02-26T15:28:03;10.50;81.90
8043;DHT22;4064;48.132;11.366;2024-02-26T15:30:29;10.50;81.50
8043;DHT22;4064;48.132;11.366;2024-02-26T15:32:55;10.40;83.50
8043;DHT22;4064;48.132;11.366;2024-02-26T15:35:21;10.40;83.90
8043;DHT22;4064;48.132;11.366;2024-02-26T15:37:47;10.40;83.80
8043;DHT22;4064;48.132;11.366;2024-02-26T15:40:12;10.30;84.30
8043;DHT22;4064;48.132;11.366;2024-02-26T15:42:38;10.30;83.90
8043;DHT22;4064;48.132;11.366;2024-02-26T15:45:05;10.20;86.80
8043;DHT22;4064;48.132;11.366;2024-02-26T15:47:30;10.20;87.80
8043;DHT22;4064;48.132;11.366;2024-02-26T15:49:56;10.20;84.40
8043;DHT22;4064;48.132;11.366;2024-02-26T15:52:22;10.10;85.30
8043;DHT22;4064;48.132;11.366;2024-02-26T15:54:47;10.10;87.50
8043;DHT22;4064;48.132;11.366;2024-02-26T15:57:13;10.00;85.70
8043;DHT22;4064;48.132;11.366;2024-02-26T15:59:38;10.00;87.70
8043;DHT22;4064;48.132;11.366;2024-02-26T16:02:04;10.00;86.70